createdAt,value
2023-02-27T00:00:17.176Z,103298.88
2023-02-27T00:02:45.394Z,103296.31
2023-02-27T00:05:13.090Z,103295.31
2023-02-27T00:07:40.270Z,103291.88
2023-02-27T00:10:08.914Z,103292.91
2023-02-27T00:12:38.035Z,103293.03
2023-02-27T00:15:11.381Z,103299.16
2023-02-27T00:17:38.677Z,103303.47
2023-02-27T00:20:07.377Z,103306.16
2023-02-27T00:22:34.173Z,103299.34
2023-02-27T00:25:01.000Z,103302.84
2023-02-27T00:27:27.729Z,103299.31
2023-02-27T00:29:54.522Z,103299.25
2023-02-27T00:32:21.624Z,103300.13
2023-02-27T00:34:48.821Z,103302.72
2023-02-27T00:37:16.021Z,103300.97
2023-02-27T00:39:43.021Z,103293.97
2023-02-27T00:42:09.826Z,103297.47
2023-02-27T00:44:37.435Z,103300.97
2023-02-27T00:47:04.575Z,103296.66
2023-02-27T00:49:31.305Z,103303.59
2023-02-27T00:51:58.071Z,103305.31
2023-02-27T00:54:25.033Z,103299.25
2023-02-27T00:56:51.739Z,103301.16
2023-02-27T00:59:18.503Z,103299.63
2023-02-27T01:01:45.276Z,103300.53
2023-02-27T01:04:12.123Z,103293.59
2023-02-27T01:06:38.915Z,103292.75
2023-02-27T01:09:06.091Z,103301.34
2023-02-27T01:11:33.375Z,103303.84
2023-02-27T01:14:00.513Z,103310.88
2023-02-27T01:16:27.422Z,103305.50
2023-02-27T01:18:54.470Z,103307.28
2023-02-27T01:21:21.347Z,103312.44
2023-02-27T01:23:48.081Z,103316.69
2023-02-27T01:26:14.809Z,103307.00
2023-02-27T01:28:41.569Z,103316.50
2023-02-27T01:31:09.454Z,103307.72
2023-02-27T01:33:36.241Z,103307.78
2023-02-27T01:36:03.251Z,103308.56
2023-02-27T01:38:30.040Z,103306.84
2023-02-27T01:40:57.456Z,103307.72
2023-02-27T01:43:24.574Z,103299.91
2023-02-27T01:45:51.552Z,103309.41
2023-02-27T01:48:30.993Z,103308.44
2023-02-27T01:51:04.997Z,103308.38
2023-02-27T01:53:34.485Z,103304.72
2023-02-27T01:56:24.193Z,103298.53
2023-02-27T01:58:53.894Z,103307.03
2023-02-27T02:01:21.988Z,103299.94
2023-02-27T02:04:13.774Z,103292.88
2023-02-27T02:06:45.200Z,103305.69
2023-02-27T02:09:13.412Z,103311.66
2023-02-27T02:11:40.384Z,103307.09
2023-02-27T02:14:10.955Z,103311.41
2023-02-27T02:16:56.646Z,103309.72
2023-02-27T02:19:26.443Z,103314.81
2023-02-27T02:22:40.490Z,103312.09
2023-02-27T02:25:25.815Z,103306.81
2023-02-27T02:28:14.163Z,103309.25
2023-02-27T02:31:09.981Z,103311.88
2023-02-27T02:33:55.320Z,103312.69
2023-02-27T02:36:59.351Z,103297.38
2023-02-27T02:39:39.577Z,103299.72
2023-02-27T02:42:24.195Z,103298.59
2023-02-27T02:45:18.259Z,103303.56
2023-02-27T02:48:04.467Z,103303.59
2023-02-27T02:50:44.859Z,103303.81
2023-02-27T02:53:31.053Z,103305.69
2023-02-27T02:56:25.202Z,103294.75
2023-02-27T02:59:14.943Z,103300.81
2023-02-27T03:01:57.755Z,103305.16
2023-02-27T03:04:39.242Z,103300.63
2023-02-27T03:07:05.830Z,103306.63
2023-02-27T03:09:46.463Z,103313.41
2023-02-27T03:12:18.306Z,103322.97
2023-02-27T03:14:55.522Z,103313.41
2023-02-27T03:17:36.373Z,103313.50
2023-02-27T03:20:08.609Z,103304.84
2023-02-27T03:22:40.515Z,103306.09
2023-02-27T03:25:11.020Z,103308.00
2023-02-27T03:27:50.860Z,103304.06
2023-02-27T03:30:45.381Z,103318.16
2023-02-27T03:33:18.927Z,103314.13
2023-02-27T03:35:57.818Z,103319.56
2023-02-27T03:38:32.549Z,103324.88
2023-02-27T03:41:15.224Z,103324.16
2023-02-27T03:44:00.486Z,103325.09
2023-02-27T03:46:28.346Z,103326.84
2023-02-27T03:48:55.182Z,103323.38
2023-02-27T03:51:24.642Z,103328.44
2023-02-27T03:54:14.503Z,103324.91
2023-02-27T03:56:44.300Z,103325.72
2023-02-27T03:59:11.221Z,103324.81
2023-02-27T04:01:38.029Z,103320.53
2023-02-27T04:04:11.428Z,103327.38
2023-02-27T04:07:05.463Z,103314.34
2023-02-27T04:10:06.273Z,103317.91
2023-02-27T04:12:59.657Z,103326.66
2023-02-27T04:15:50.850Z,103324.81
2023-02-27T04:18:23.164Z,103322.09
2023-02-27T04:20:59.114Z,103322.84
2023-02-27T04:23:41.214Z,103327.88
2023-02-27T04:26:10.855Z,103333.75
2023-02-27T04:28:46.064Z,103336.31
2023-02-27T04:31:19.351Z,103333.50
2023-02-27T04:34:00.989Z,103334.25
2023-02-27T04:36:33.574Z,103325.44
2023-02-27T04:39:10.546Z,103330.25
2023-02-27T04:41:44.044Z,103328.34
2023-02-27T04:44:14.124Z,103326.53
2023-02-27T04:46:44.768Z,103323.13
2023-02-27T04:49:20.353Z,103322.53
2023-02-27T04:52:16.191Z,103320.19
2023-02-27T04:54:53.016Z,103316.06
2023-02-27T04:57:32.177Z,103320.34
2023-02-27T05:00:02.471Z,103317.69
2023-02-27T05:02:34.410Z,103317.44
2023-02-27T05:05:06.466Z,103319.88
2023-02-27T05:07:39.794Z,103326.78
2023-02-27T05:10:13.599Z,103327.50
2023-02-27T05:12:55.105Z,103314.66
2023-02-27T05:15:28.522Z,103323.50
2023-02-27T05:17:55.292Z,103326.78
2023-02-27T05:20:29.886Z,103325.06
2023-02-27T05:23:00.921Z,103332.03
2023-02-27T05:25:56.152Z,103323.50
2023-02-27T05:28:55.275Z,103332.91
2023-02-27T05:31:35.112Z,103342.38
2023-02-27T05:34:12.416Z,103336.50
2023-02-27T05:37:00.137Z,103340.75
2023-02-27T05:39:32.822Z,103349.06
2023-02-27T05:42:05.295Z,103342.03
2023-02-27T05:44:36.393Z,103342.84
2023-02-27T05:47:08.967Z,103346.19
2023-02-27T05:49:44.266Z,103341.03
2023-02-27T05:52:16.417Z,103341.94
2023-02-27T05:55:31.472Z,103338.75
2023-02-27T05:58:14.116Z,103338.88
2023-02-27T06:00:46.338Z,103337.13
2023-02-27T06:03:14.163Z,103336.25
2023-02-27T06:05:43.229Z,103336.19
2023-02-27T06:08:11.151Z,103350.06
2023-02-27T06:10:38.163Z,103347.44
2023-02-27T06:13:04.932Z,103343.19
2023-02-27T06:15:31.724Z,103335.50
2023-02-27T06:17:58.441Z,103343.38
2023-02-27T06:20:25.232Z,103334.69
2023-02-27T06:22:52.013Z,103335.50
2023-02-27T06:25:18.910Z,103345.81
2023-02-27T06:27:45.698Z,103338.69
2023-02-27T06:30:12.834Z,103344.63
2023-02-27T06:32:40.039Z,103341.06
2023-02-27T06:35:07.559Z,103341.94
2023-02-27T06:37:34.387Z,103353.22
2023-02-27T06:40:01.148Z,103357.50
2023-02-27T06:42:27.925Z,103350.72
2023-02-27T06:44:55.252Z,103360.31
2023-02-27T06:47:21.994Z,103364.59
2023-02-27T06:49:49.216Z,103356.84
2023-02-27T06:52:16.318Z,103362.72
2023-02-27T06:54:43.062Z,103356.53
2023-02-27T06:57:09.782Z,103371.06
2023-02-27T06:59:36.591Z,103367.50
2023-02-27T07:02:03.309Z,103365.69
2023-02-27T07:04:30.063Z,103372.53
2023-02-27T07:07:35.711Z,103371.66
2023-02-27T07:09:43.562Z,103372.41
2023-02-27T07:12:10.514Z,103368.06
2023-02-27T07:14:37.342Z,103369.75
2023-02-27T07:17:04.712Z,103371.38
2023-02-27T07:19:33.824Z,103377.25
2023-02-27T07:22:00.591Z,103367.81
2023-02-27T07:24:27.385Z,103374.69
2023-02-27T07:26:55.051Z,103381.59
2023-02-27T07:29:21.991Z,103388.50
2023-02-27T07:31:48.827Z,103385.09
2023-02-27T07:34:15.884Z,103393.59
2023-02-27T07:36:43.507Z,103391.03
2023-02-27T07:39:12.624Z,103392.06
2023-02-27T07:41:39.821Z,103392.09
2023-02-27T07:44:08.679Z,103393.91
2023-02-27T07:46:36.275Z,103393.13
2023-02-27T07:49:03.456Z,103395.84
2023-02-27T07:51:30.275Z,103404.44
2023-02-27T07:54:00.041Z,103402.81
2023-02-27T07:56:27.709Z,103403.69
2023-02-27T07:58:54.899Z,103408.16
2023-02-27T08:01:21.833Z,103407.91
2023-02-27T08:03:48.678Z,103403.38
2023-02-27T08:06:15.546Z,103419.59
2023-02-27T08:08:42.366Z,103414.06
2023-02-27T08:11:09.830Z,103408.44
2023-02-27T08:16:23.485Z,103409.22
2023-02-27T08:18:50.218Z,103407.88
2023-02-27T08:21:17.032Z,103408.91
2023-02-27T08:23:43.796Z,103404.03
2023-02-27T08:26:10.903Z,103403.34
2023-02-27T08:28:37.881Z,103404.41
2023-02-27T08:31:04.792Z,103413.25
2023-02-27T08:33:31.521Z,103409.19
2023-02-27T08:35:58.362Z,103413.72
2023-02-27T08:38:26.513Z,103409.59
2023-02-27T08:40:53.595Z,103409.72
2023-02-27T08:43:24.066Z,103408.06
2023-02-27T08:45:51.861Z,103400.31
2023-02-27T08:48:18.927Z,103406.50
2023-02-27T08:50:46.986Z,103408.25
2023-02-27T08:53:14.628Z,103415.22
2023-02-27T08:55:42.732Z,103406.50
2023-02-27T08:58:10.484Z,103417.84
2023-02-27T09:00:37.452Z,103405.72
2023-02-27T09:03:04.369Z,103428.31
2023-02-27T09:05:34.121Z,103419.63
2023-02-27T09:08:02.558Z,103425.72
2023-02-27T09:10:29.350Z,103430.88
2023-02-27T09:12:56.054Z,103432.59
2023-02-27T09:15:22.925Z,103427.31
2023-02-27T09:17:49.757Z,103435.91
2023-02-27T09:20:16.689Z,103435.81
2023-02-27T09:22:43.486Z,103435.81
2023-02-27T09:25:10.226Z,103427.06
2023-02-27T09:27:37.000Z,103420.16
2023-02-27T09:30:04.222Z,103432.28
2023-02-27T09:32:31.167Z,103427.91
2023-02-27T09:34:58.465Z,103431.44
2023-02-27T09:37:25.184Z,103438.31
2023-02-27T09:39:52.185Z,103433.97
2023-02-27T09:42:24.197Z,103443.44
2023-02-27T09:45:05.734Z,103442.50
2023-02-27T09:47:42.634Z,103441.66
2023-02-27T09:50:44.821Z,103442.41
2023-02-27T09:53:22.055Z,103438.78
2023-02-27T09:55:50.462Z,103429.25
2023-02-27T09:58:26.307Z,103447.41
2023-02-27T10:00:58.993Z,103453.69
2023-02-27T10:03:34.856Z,103456.34
2023-02-27T10:06:13.230Z,103453.00
2023-02-27T10:09:09.550Z,103458.22
2023-02-27T10:12:19.862Z,103459.88
2023-02-27T10:15:03.103Z,103455.56
2023-02-27T10:17:56.780Z,103460.63
2023-02-27T10:20:30.928Z,103460.63
2023-02-27T10:23:01.906Z,103455.28
2023-02-27T10:25:32.002Z,103454.34
2023-02-27T10:28:11.331Z,103453.38
2023-02-27T10:30:38.164Z,103456.94
2023-02-27T10:33:28.261Z,103436.97
2023-02-27T10:35:55.468Z,103443.72
2023-02-27T10:38:44.954Z,103454.88
2023-02-27T10:41:14.862Z,103446.09
2023-02-27T10:43:42.366Z,103455.63
2023-02-27T10:46:16.089Z,103454.81
2023-02-27T10:48:43.435Z,103448.69
2023-02-27T10:51:35.126Z,103453.88
2023-02-27T10:54:31.996Z,103457.13
2023-02-27T10:57:02.589Z,103451.88
2023-02-27T10:59:33.753Z,103450.06
2023-02-27T11:02:04.738Z,103454.31
2023-02-27T11:04:35.683Z,103459.47
2023-02-27T11:07:09.881Z,103461.28
2023-02-27T11:09:37.606Z,103455.88
2023-02-27T11:12:26.270Z,103471.44
2023-02-27T11:14:55.766Z,103454.09
2023-02-27T11:17:34.275Z,103465.72
2023-02-27T11:20:06.172Z,103466.72
2023-02-27T11:22:33.717Z,103466.81
2023-02-27T11:25:18.908Z,103467.47
2023-02-27T11:27:46.651Z,103466.13
2023-02-27T11:30:28.906Z,103462.28
2023-02-27T11:32:59.066Z,103458.53
2023-02-27T11:35:31.892Z,103467.78
2023-02-27T11:38:07.339Z,103460.06
2023-02-27T11:40:41.246Z,103456.69
2023-02-27T11:43:20.734Z,103462.69
2023-02-27T11:46:21.394Z,103453.88
2023-02-27T11:49:26.573Z,103480.41
2023-02-27T11:52:47.215Z,103462.25
2023-02-27T11:55:21.922Z,103460.78
2023-02-27T11:57:54.664Z,103471.63
2023-02-27T12:00:39.853Z,103472.25
2023-02-27T12:03:34.223Z,103466.22
2023-02-27T12:06:04.991Z,103473.63
2023-02-27T12:09:01.000Z,103461.47
2023-02-27T12:11:35.504Z,103459.94
2023-02-27T12:14:21.512Z,103454.06
2023-02-27T12:17:02.256Z,103463.78
2023-02-27T12:19:42.013Z,103457.72
2023-02-27T12:22:23.151Z,103464.88
2023-02-27T12:24:56.100Z,103458.09
2023-02-27T12:27:38.091Z,103453.94
2023-02-27T12:30:16.317Z,103446.19
2023-02-27T12:33:03.965Z,103452.38
2023-02-27T12:35:35.047Z,103457.63
2023-02-27T12:38:02.974Z,103441.88
2023-02-27T12:41:23.571Z,103455.22
2023-02-27T12:44:21.697Z,103447.31
2023-02-27T12:47:05.592Z,103466.78
2023-02-27T12:49:42.681Z,103457.44
2023-02-27T12:52:38.537Z,103454.06
2023-02-27T12:55:12.558Z,103446.22
2023-02-27T12:58:04.874Z,103447.25
2023-02-27T13:00:46.387Z,103432.44
2023-02-27T13:03:21.273Z,103440.13
2023-02-27T13:05:59.384Z,103446.97
2023-02-27T13:08:38.347Z,103440.91
2023-02-27T13:11:21.847Z,103441.75
2023-02-27T13:14:31.481Z,103435.53
2023-02-27T13:17:21.008Z,103441.63
2023-02-27T13:19:55.644Z,103432.00
2023-02-27T13:22:44.707Z,103419.03
2023-02-27T13:25:16.055Z,103436.38
2023-02-27T13:27:48.381Z,103430.22
2023-02-27T13:30:24.354Z,103433.66
2023-02-27T13:33:15.855Z,103436.22
2023-02-27T13:35:45.449Z,103437.31
2023-02-27T13:38:43.624Z,103430.25
2023-02-27T13:41:25.603Z,103434.53
2023-02-27T13:44:01.416Z,103437.31
2023-02-27T13:46:28.458Z,103433.75
2023-02-27T13:49:06.011Z,103428.50
2023-02-27T13:51:35.846Z,103427.63
2023-02-27T13:54:14.629Z,103440.88
2023-02-27T13:56:59.136Z,103447.06
2023-02-27T13:59:41.145Z,103439.19
2023-02-27T14:02:13.272Z,103440.03
2023-02-27T14:04:53.033Z,103426.97
2023-02-27T14:07:23.800Z,103423.56
2023-02-27T14:10:00.374Z,103426.94
2023-02-27T14:12:42.579Z,103428.78
2023-02-27T14:15:23.230Z,103425.13
2023-02-27T14:18:02.379Z,103432.16
2023-02-27T14:20:39.383Z,103425.25
2023-02-27T14:23:15.536Z,103430.63
2023-02-27T14:26:02.226Z,103428.09
2023-02-27T14:28:54.153Z,103429.00
2023-02-27T14:31:36.854Z,103433.34
2023-02-27T14:34:09.299Z,103426.34
2023-02-27T14:36:46.620Z,103424.56
2023-02-27T14:39:27.936Z,103420.97
2023-02-27T14:42:15.593Z,103426.19
2023-02-27T14:44:48.076Z,103430.66
2023-02-27T14:47:17.583Z,103427.31
2023-02-27T14:49:47.410Z,103424.78
2023-02-27T14:52:18.699Z,103425.69
2023-02-27T14:54:45.471Z,103419.59
2023-02-27T14:57:26.695Z,103420.56
2023-02-27T14:59:54.360Z,103434.56
2023-02-27T15:02:23.910Z,103424.09
2023-02-27T15:05:13.710Z,103433.72
2023-02-27T15:07:40.793Z,103424.94
2023-02-27T15:10:09.836Z,103425.81
2023-02-27T15:12:40.267Z,103417.03
2023-02-27T15:15:09.869Z,103425.78
2023-02-27T15:17:39.825Z,103416.22
2023-02-27T15:20:36.011Z,103405.91
2023-02-27T15:23:26.209Z,103409.38
2023-02-27T15:25:58.700Z,103409.41
2023-02-27T15:28:32.179Z,103412.00
2023-02-27T15:30:59.139Z,103410.28
2023-02-27T15:33:30.852Z,103404.22
2023-02-27T15:35:59.423Z,103397.22
2023-02-27T15:38:35.199Z,103399.81
2023-02-27T15:41:04.164Z,103399.75
2023-02-27T15:43:31.879Z,103401.44
2023-02-27T15:45:59.051Z,103400.53
2023-02-27T15:48:26.309Z,103398.75
2023-02-27T15:51:02.397Z,103403.19
2023-02-27T15:53:30.946Z,103395.41
2023-02-27T15:56:00.905Z,103383.19
2023-02-27T15:58:35.175Z,103398.06
2023-02-27T16:01:05.531Z,103393.69
2023-02-27T16:03:45.728Z,103383.22
2023-02-27T16:06:21.813Z,103397.22
2023-02-27T16:08:53.142Z,103395.47
2023-02-27T16:11:24.041Z,103388.53
2023-02-27T16:13:52.259Z,103395.56
2023-02-27T16:16:22.060Z,103397.38
2023-02-27T16:18:54.073Z,103389.56
2023-02-27T16:21:23.326Z,103393.94
2023-02-27T16:23:51.225Z,103393.06
2023-02-27T16:26:31.541Z,103393.09
2023-02-27T16:29:20.777Z,103398.31
2023-02-27T16:31:53.792Z,103386.16
2023-02-27T16:34:44.311Z,103393.09
2023-02-27T16:37:22.029Z,103400.06
2023-02-27T16:39:54.948Z,103407.94
2023-02-27T16:42:22.160Z,103400.09
2023-02-27T16:44:48.972Z,103408.78
2023-02-27T16:47:15.775Z,103412.31
2023-02-27T16:49:44.612Z,103403.63
2023-02-27T16:52:11.941Z,103408.88
2023-02-27T16:54:38.858Z,103407.09
2023-02-27T16:57:05.833Z,103406.31
2023-02-27T16:59:36.230Z,103396.72
2023-02-27T17:02:05.934Z,103399.34
2023-02-27T17:04:32.776Z,103405.44
2023-02-27T17:07:01.646Z,103414.16
2023-02-27T17:09:29.488Z,103412.41
2023-02-27T17:11:57.740Z,103409.78
2023-02-27T17:14:24.867Z,103420.25
2023-02-27T17:16:51.925Z,103415.06
2023-02-27T17:19:21.538Z,103401.19
2023-02-27T17:21:49.142Z,103411.59
2023-02-27T17:24:16.021Z,103424.66
2023-02-27T17:26:42.814Z,103417.72
2023-02-27T17:29:09.852Z,103423.84
2023-02-27T17:31:37.302Z,103414.31
2023-02-27T17:34:05.648Z,103429.94
2023-02-27T17:36:32.616Z,103429.94
2023-02-27T17:39:01.026Z,103432.59
2023-02-27T17:41:28.913Z,103441.28
2023-02-27T17:43:57.840Z,103450.88
2023-02-27T17:46:27.337Z,103459.56
2023-02-27T17:48:56.379Z,103445.66
2023-02-27T17:51:23.202Z,103463.06
2023-02-27T17:53:50.028Z,103462.19
2023-02-27T17:56:16.760Z,103461.34
2023-02-27T17:58:45.612Z,103463.09
2023-02-27T18:01:24.775Z,103475.28
2023-02-27T18:03:55.807Z,103477.88
2023-02-27T18:06:23.615Z,103477.88
2023-02-27T18:08:50.970Z,103476.16
2023-02-27T18:11:20.652Z,103484.84
2023-02-27T18:13:48.480Z,103483.13
2023-02-27T18:16:15.785Z,103485.72
2023-02-27T18:18:43.241Z,103487.44
2023-02-27T18:21:17.103Z,103487.44
2023-02-27T18:23:44.394Z,103492.66
2023-02-27T18:26:29.368Z,103491.78
2023-02-27T18:29:05.649Z,103488.31
2023-02-27T18:31:42.899Z,103485.69
2023-02-27T18:34:10.661Z,103491.81
2023-02-27T18:36:38.266Z,103503.97
2023-02-27T18:39:06.513Z,103497.88
2023-02-27T18:41:33.840Z,103498.75
2023-02-27T18:44:00.886Z,103500.50
2023-02-27T18:46:28.582Z,103500.50
2023-02-27T18:48:55.634Z,103507.47
2023-02-27T18:51:22.460Z,103515.28
2023-02-27T18:53:50.455Z,103507.44
2023-02-27T18:56:20.482Z,103513.50
2023-02-27T18:58:47.350Z,103514.38
2023-02-27T19:01:26.824Z,103517.03
2023-02-27T19:03:56.378Z,103521.34
2023-02-27T19:06:23.165Z,103516.13
2023-02-27T19:08:49.971Z,103527.44
2023-02-27T19:11:35.647Z,103530.03
2023-02-27T19:14:12.156Z,103529.19
2023-02-27T19:16:39.040Z,103528.28
2023-02-27T19:19:07.668Z,103526.53
2023-02-27T19:21:35.294Z,103530.91
2023-02-27T19:24:02.955Z,103526.53
2023-02-27T19:26:31.910Z,103529.16
2023-02-27T19:28:58.754Z,103533.50
2023-02-27T19:31:25.747Z,103526.56
2023-02-27T19:33:52.877Z,103545.63
2023-02-27T19:36:21.202Z,103544.78
2023-02-27T19:38:48.835Z,103543.91
2023-02-27T19:41:17.010Z,103543.03
2023-02-27T19:43:44.510Z,103551.72
2023-02-27T19:46:17.948Z,103549.97
2023-02-27T19:48:45.440Z,103556.06
2023-02-27T19:51:14.108Z,103544.75
2023-02-27T19:53:42.580Z,103561.28
2023-02-27T19:56:14.565Z,103551.66
2023-02-27T19:58:41.284Z,103554.31
2023-02-27T20:01:08.382Z,103545.59
2023-02-27T20:03:35.681Z,103559.50
2023-02-27T20:06:06.588Z,103552.56
2023-02-27T20:08:34.365Z,103554.28
2023-02-27T20:11:04.152Z,103563.00
2023-02-27T20:13:31.194Z,103569.06
2023-02-27T20:16:02.546Z,103574.25
2023-02-27T20:18:30.006Z,103570.78
2023-02-27T20:21:01.932Z,103571.63
2023-02-27T20:23:28.974Z,103569.03
2023-02-27T20:25:56.196Z,103570.75
2023-02-27T20:28:23.417Z,103575.13
2023-02-27T20:30:50.205Z,103567.28
2023-02-27T20:33:17.010Z,103573.34
2023-02-27T20:35:43.813Z,103582.03
2023-02-27T20:38:10.904Z,103576.81
2023-02-27T20:40:37.665Z,103585.50
2023-02-27T20:43:04.499Z,103585.50
2023-02-27T20:45:31.408Z,103589.84
2023-02-27T20:47:58.153Z,103585.50
2023-02-27T20:50:24.860Z,103585.50
2023-02-27T20:52:55.311Z,103585.47
2023-02-27T20:55:22.155Z,103585.50
2023-02-27T20:57:48.968Z,103587.22
2023-02-27T21:00:16.094Z,103587.25
2023-02-27T21:02:42.842Z,103582.88
2023-02-27T21:05:09.884Z,103588.94
2023-02-27T21:07:36.740Z,103586.31
2023-02-27T21:10:03.701Z,103593.28
2023-02-27T21:12:30.616Z,103594.16
2023-02-27T21:14:57.399Z,103584.56
2023-02-27T21:17:26.230Z,103588.03
2023-02-27T21:19:52.973Z,103592.38
2023-02-27T21:22:19.727Z,103596.72
2023-02-27T21:24:48.898Z,103592.38
2023-02-27T21:27:19.824Z,103587.16
2023-02-27T21:29:47.068Z,103586.31
2023-02-27T21:32:13.910Z,103598.44
2023-02-27T21:34:40.799Z,103594.97
2023-02-27T21:37:10.025Z,103594.09
2023-02-27T21:39:36.827Z,103597.59
2023-02-27T21:42:03.834Z,103594.06
2023-02-27T21:44:32.048Z,103594.09
2023-02-27T21:46:58.849Z,103590.59
2023-02-27T21:49:28.429Z,103588.88
2023-02-27T21:51:55.427Z,103599.28
2023-02-27T21:54:22.186Z,103604.50
2023-02-27T21:56:50.038Z,103602.75
2023-02-27T21:59:19.159Z,103612.28
2023-02-27T22:01:47.644Z,103614.88
2023-02-27T22:04:16.052Z,103614.03
2023-02-27T22:06:43.002Z,103618.34
2023-02-27T22:09:09.829Z,103627.91
2023-02-27T22:11:36.685Z,103628.75
2023-02-27T22:14:05.730Z,103629.66
2023-02-27T22:16:32.584Z,103633.09
2023-02-27T22:18:59.387Z,103644.38
2023-02-27T22:21:27.769Z,103640.00
2023-02-27T22:23:57.834Z,103637.41
2023-02-27T22:26:28.322Z,103646.09
2023-02-27T22:28:58.954Z,103656.53
2023-02-27T22:31:31.983Z,103660.88
2023-02-27T22:34:02.405Z,103660.00
2023-02-27T22:36:30.779Z,103660.88
2023-02-27T22:38:57.788Z,103668.69
2023-02-27T22:41:28.064Z,103666.06
2023-02-27T22:43:55.591Z,103671.28
2023-02-27T22:46:28.545Z,103666.91
2023-02-27T22:49:11.296Z,103673.88
2023-02-27T22:51:38.206Z,103679.94
2023-02-27T22:54:06.724Z,103673.84
2023-02-27T22:56:34.430Z,103679.94
2023-02-27T22:59:01.343Z,103677.31
2023-02-27T23:01:31.878Z,103682.53
2023-02-27T23:04:01.361Z,103674.72
2023-02-27T23:06:33.774Z,103681.66
2023-02-27T23:09:01.746Z,103680.72
2023-02-27T23:11:28.828Z,103681.59
2023-02-27T23:13:56.118Z,103674.66
2023-02-27T23:16:23.524Z,103677.25
2023-02-27T23:18:54.463Z,103686.00
2023-02-27T23:21:24.251Z,103694.66
2023-02-27T23:23:53.939Z,103690.28
2023-02-27T23:26:21.245Z,103688.53
2023-02-27T23:28:48.053Z,103693.75
2023-02-27T23:31:15.067Z,103681.50
2023-02-27T23:33:41.874Z,103689.38
2023-02-27T23:36:09.073Z,103686.75
2023-02-27T23:38:35.881Z,103692.84
2023-02-27T23:41:09.955Z,103693.72
2023-02-27T23:43:55.215Z,103704.09
2023-02-27T23:46:22.330Z,103701.53
2023-02-27T23:48:49.315Z,103701.53
2023-02-27T23:51:16.111Z,103702.41
2023-02-27T23:53:43.090Z,103698.06
2023-02-27T23:56:19.348Z,103695.47
2023-02-27T23:58:47.891Z,103702.50
